Flight Track Log - Related Links

Times and Time Zones

All times are in EDT time to prevent confusion due to time zone crossing. See the N509QS flight status page for this flight to view local times or setup timezone preferences in your user account.


Time Position Orientation Groundspeed Altitude Reporting Facility
EDT Latitude Longitude Course Direction KTS MPH feet Rate Location/Type
Sun 01:32:18 PM 41.9436 -72.6772 51° Northeast 200 230 1,100  Level Boston Center
Sun 01:32:50 PM 41.9667 -72.6383 51° Northeast 217 250 3,100 3,851 Climbing Boston Center
Sun 01:33:25 PM 41.9792 -72.5964 68° East 249 287 5,400 4,300 Climbing Boston Center
Sun 01:33:50 PM 42.0044 -72.5461 56° Northeast 282 325 7,400 4,131 Climbing Boston Center
Sun 01:34:26 PM 42.0378 -72.5239 26° Northeast 307 353 9,600 2,600 Climbing Boston Center
Sun 01:34:50 PM 42.0753 -72.5294 354° North 319 367 10,000 393 Climbing Boston Center
Sun 01:35:27 PM 42.1044 -72.5911 303° West 323 372 10,000  Level Boston Center
Sun 01:35:50 PM 42.1083 -72.6417 276° West 321 369 10,000  Level Boston Center
Sun 01:36:21 PM 42.0936 -72.6947 250° West 311 358 10,000  Level Boston Center
Sun 01:38:02 PM 42.0411 -72.8678 248° West 314 361 10,000 486 Level Boston Center
Sun 01:39:14 PM 42.0117 -72.9625 247° West 296 341 11,400 909 Climbing Boston Center
Sun 01:40:14 PM 41.9506 -73.0681 232° Southwest 296 341 12,000 300 Climbing Boston Center
Sun 01:41:14 PM 41.8794 -73.1289 213° Southwest 305 351 12,000  Level Boston Center
Sun 01:42:14 PM 41.8183 -73.2089 224° Southwest 313 360 12,000  Level Boston Center
Sun 01:43:14 PM 41.7678 -73.3028 234° Southwest 313 360 12,000 -150 Level Boston Center
Sun 01:44:14 PM 41.7233 -73.3831 233° Southwest 313 360 11,700 -650 Descending Boston Center
Sun 01:45:14 PM 41.6725 -73.4656 230° Southwest 282 325 10,700 -900 Descending Boston Center
Sun 01:46:14 PM 41.6344 -73.5372 235° Southwest 272 313 9,900 -878 Descending Boston Center
Sun 01:47:58 PM 41.5500 -73.6667 229° Southwest 260 299 8,300 -911 Descending New York TRACON
Sun 01:48:52 PM 41.5167 -73.7333 236° Southwest 255 293 7,500 -1,000 Descending New York TRACON
Sun 01:49:52 PM 41.4667 -73.8167 231° Southwest 251 289 6,400 -1,200 Descending New York TRACON
Sun 01:50:52 PM 41.4167 -73.8500 207° Southwest 256 295 5,100 -700 Descending New York TRACON
Sun 01:51:52 PM 41.3500 -73.8000 151° Southeast 274 315 5,000 -50 Descending New York TRACON
Sun 01:52:52 PM 41.2833 -73.7500 151° Southeast 264 304 5,000  Level New York TRACON
Sun 01:53:52 PM 41.2333 -73.7000 143° Southeast 249 287 5,000 -429 Level New York TRACON
Sun 01:54:58 PM 41.1667 -73.6333 143° Southeast 259 298 4,100 -900 Descending New York TRACON
Sun 01:55:52 PM 41.1167 -73.5833 143° Southeast 235 270 3,200 -947 Descending New York TRACON
Sun 01:56:52 PM 41.0667 -73.5667 166° South 192 221 2,300 -600 Descending New York TRACON
Sun 01:57:52 PM 41.0167 -73.5500 166° South 180 207 2,000 -150 Descending New York TRACON
Sun 01:58:52 PM 40.9833 -73.5833 217° Southwest 161 185 2,000 -150 Level New York TRACON
Sun 01:59:52 PM 40.9833 -73.6333 270° West 143 165 1,700 -250 Descending New York TRACON
Sun 02:00:52 PM 41.0167 -73.6667 323° Northwest 154 177 1,500 -450 Descending New York TRACON
Sun 02:01:52 PM 41.0500 -73.6833 339° North 123 142 800 -700 Descending New York TRACON
Sun 02:03:00 PM 41.0667 -73.7000 242° Southwest  Level FlightAware Approximate

Login

Don't have an account? Register now (free) for customized features, flight alerts, and more!